Time;durP1;ratioP1;P1;durP2;ratioP2;P2;SDS_P1;SDS_P2;PMS_P1;PMS_P2;Temp;Humidity;BMP_temperature;BMP_pressure;BME280_temperature;BME280_humidity;BME280_pressure;Samples;Min_cycle;Max_cycle;Signal;HPM_P1;HPM_P2
2023/08/11 00:00:23;;;;;;;1999.90;999.90;;;13.70;85.40;;;;;;5033657;28;20124;-76
2023/08/11 00:02:52;;;;;;;1999.90;999.90;;;13.70;85.60;;;;;;5036277;28;20412;-75
2023/08/11 00:05:18;;;;;;;1999.90;999.90;;;13.90;85.70;;;;;;5029826;28;20037;-76
2023/08/11 00:07:50;;;;;;;1999.90;999.90;;;13.80;85.50;;;;;;5035835;28;20044;-74
2023/08/11 00:10:17;;;;;;;1999.90;999.90;;;13.70;85.40;;;;;;5031123;28;20037;-74
2023/08/11 00:12:43;;;;;;;1999.90;999.90;;;13.60;85.10;;;;;;5033127;28;20034;-74
2023/08/11 00:15:09;;;;;;;1999.90;999.90;;;13.60;85.20;;;;;;5038574;28;20057;-75
2023/08/11 00:17:35;;;;;;;1999.90;999.90;;;13.60;85.80;;;;;;5027184;28;20551;-76
2023/08/11 00:20:03;;;;;;;1999.90;999.90;;;13.70;85.80;;;;;;5038111;28;20044;-75
2023/08/11 00:22:29;;;;;;;1999.90;999.90;;;13.70;85.40;;;;;;5036187;28;20040;-74
2023/08/11 00:24:54;;;;;;;1999.90;999.90;;;13.60;85.90;;;;;;5033578;28;20435;-75
2023/08/11 00:27:20;;;;;;;1999.90;999.90;;;13.60;86.00;;;;;;5035595;28;20510;-75
2023/08/11 00:29:46;;;;;;;1999.90;999.90;;;13.50;86.10;;;;;;5036120;28;20443;-75
2023/08/11 00:32:11;;;;;;;1999.90;999.90;;;13.50;86.30;;;;;;5034908;28;20484;-74
2023/08/11 00:34:37;;;;;;;1999.90;999.90;;;13.50;86.20;;;;;;5032836;28;20034;-74
2023/08/11 00:37:03;;;;;;;1999.90;999.90;;;13.60;85.70;;;;;;5027975;28;20054;-74
2023/08/11 00:39:29;;;;;;;1999.90;999.90;;;13.50;85.60;;;;;;5032459;28;20037;-74
2023/08/11 00:41:55;;;;;;;1999.90;999.90;;;13.40;85.90;;;;;;5033920;28;20029;-75
2023/08/11 00:44:21;;;;;;;1999.90;999.90;;;13.50;86.00;;;;;;5032901;28;22249;-74
2023/08/11 00:46:47;;;;;;;1999.90;999.90;;;13.60;86.40;;;;;;5033262;28;20065;-74
2023/08/11 00:49:14;;;;;;;1999.90;999.90;;;13.50;85.30;;;;;;5029709;28;20044;-75
2023/08/11 00:51:40;;;;;;;1999.90;999.90;;;13.50;86.40;;;;;;5033056;28;20042;-75
2023/08/11 00:54:07;;;;;;;1999.90;999.90;;;13.50;86.00;;;;;;5035656;28;20605;-74
2023/08/11 00:56:34;;;;;;;1999.90;999.90;;;13.50;86.30;;;;;;5030734;28;20045;-75
2023/08/11 00:59:00;;;;;;;1999.90;999.90;;;13.40;87.80;;;;;;5035025;28;20110;-75
2023/08/11 01:01:26;;;;;;;1999.90;999.90;;;13.40;86.80;;;;;;5033045;28;20041;-74
2023/08/11 01:03:52;;;;;;;1999.90;999.90;;;13.40;86.50;;;;;;5030574;28;20033;-75
2023/08/11 01:06:40;;;;;;;1999.90;999.90;;;13.40;86.30;;;;;;5033963;28;20133;-75
2023/08/11 01:09:39;;;;;;;1999.90;999.90;;;13.30;86.60;;;;;;5033676;28;20041;-74
2023/08/11 01:12:24;;;;;;;1999.90;999.90;;;13.30;87.00;;;;;;5035927;28;20041;-76
2023/08/11 01:15:20;;;;;;;1999.90;999.90;;;13.20;87.60;;;;;;5032107;28;20025;-74
2023/08/11 01:17:48;;;;;;;1999.90;999.90;;;13.20;88.00;;;;;;5040641;28;20024;-76
2023/08/11 01:20:16;;;;;;;1999.90;999.90;;;13.10;88.10;;;;;;5036312;28;20075;-74
2023/08/11 01:22:44;;;;;;;1999.90;999.90;;;13.20;88.70;;;;;;5036993;28;20495;-75
2023/08/11 01:25:11;;;;;;;1999.90;999.90;;;13.20;88.40;;;;;;5035674;28;20116;-76
2023/08/11 01:27:44;;;;;;;1999.90;999.90;;;13.20;88.10;;;;;;5033469;28;20025;-75
2023/08/11 01:30:11;;;;;;;1999.90;999.90;;;13.20;87.10;;;;;;5031136;28;20041;-77
2023/08/11 01:32:38;;;;;;;1999.90;999.90;;;13.20;87.50;;;;;;5034006;28;20037;-74
2023/08/11 01:35:05;;;;;;;1999.90;999.90;;;13.20;87.20;;;;;;5032362;28;20044;-74
2023/08/11 01:37:32;;;;;;;1999.90;999.90;;;13.00;87.40;;;;;;5035719;28;20119;-73
2023/08/11 01:39:58;;;;;;;1999.90;999.90;;;13.00;88.10;;;;;;5041642;28;20045;-75
2023/08/11 01:42:24;;;;;;;1999.90;999.90;;;13.00;88.90;;;;;;5039657;28;20044;-75
2023/08/11 01:44:50;;;;;;;1999.90;999.90;;;13.00;89.30;;;;;;5040753;28;20108;-75
2023/08/11 01:47:18;;;;;;;1999.90;999.90;;;13.00;89.40;;;;;;5039370;28;20036;-75
2023/08/11 01:49:44;;;;;;;1999.90;999.90;;;12.90;89.80;;;;;;5035478;28;20496;-75
2023/08/11 01:52:10;;;;;;;1999.90;999.90;;;13.00;89.70;;;;;;5037242;28;20041;-74
2023/08/11 01:54:36;;;;;;;1999.90;999.90;;;13.00;89.20;;;;;;5035646;28;20037;-74
2023/08/11 01:57:02;;;;;;;1999.90;999.90;;;12.90;88.50;;;;;;5036917;28;20036;-75
2023/08/11 01:59:29;;;;;;;1999.90;999.90;;;12.80;88.50;;;;;;5036781;28;20040;-75
2023/08/11 02:01:54;;;;;;;1999.90;999.90;;;12.90;88.50;;;;;;5035277;28;20033;-73
2023/08/11 02:04:20;;;;;;;1999.90;999.90;;;12.80;87.90;;;;;;5031736;28;20502;-74
2023/08/11 02:06:46;;;;;;;1999.90;999.90;;;12.70;88.10;;;;;;5033106;28;20033;-75
2023/08/11 02:09:12;;;;;;;1999.90;999.90;;;12.70;87.80;;;;;;5032607;28;20048;-74
2023/08/11 02:11:39;;;;;;;1999.90;999.90;;;12.70;88.00;;;;;;5029955;28;20491;-75
2023/08/11 02:14:05;;;;;;;1999.90;999.90;;;12.70;87.90;;;;;;5035789;28;20044;-74
2023/08/11 02:16:31;;;;;;;1999.90;999.90;;;12.60;88.00;;;;;;5038025;28;20037;-74
2023/08/11 02:18:58;;;;;;;1999.90;999.90;;;12.50;88.20;;;;;;5037852;28;20052;-76
2023/08/11 02:21:23;;;;;;;1999.90;999.90;;;12.60;88.20;;;;;;5039506;28;20099;-74
2023/08/11 02:23:49;;;;;;;1999.90;999.90;;;12.40;88.00;;;;;;5035977;28;20072;-73
2023/08/11 02:26:15;;;;;;;1999.90;999.90;;;12.40;88.50;;;;;;5041286;28;20033;-74
2023/08/11 02:28:41;;;;;;;1999.90;999.90;;;12.40;89.00;;;;;;5030423;28;20034;-75
2023/08/11 02:31:09;;;;;;;1999.90;999.90;;;12.50;89.10;;;;;;5037813;28;20095;-75
2023/08/11 02:33:35;;;;;;;1999.90;999.90;;;12.60;89.00;;;;;;5033495;28;20039;-75
2023/08/11 02:36:01;;;;;;;1999.90;999.90;;;12.60;88.50;;;;;;5030366;28;20045;-76
2023/08/11 02:38:27;;;;;;;1999.90;999.90;;;12.50;89.00;;;;;;5036890;28;20412;-75
2023/08/11 02:40:52;;;;;;;1999.90;999.90;;;12.40;88.90;;;;;;5033548;28;20040;-75
2023/08/11 02:43:18;;;;;;;1999.90;999.90;;;12.50;89.70;;;;;;5015732;28;20025;-74
2023/08/11 02:45:43;;;;;;;1999.90;999.90;;;12.50;89.00;;;;;;5031565;28;20036;-74
2023/08/11 02:48:09;;;;;;;1999.90;999.90;;;12.50;89.60;;;;;;5029877;28;20037;-74
2023/08/11 02:50:35;;;;;;;1999.90;999.90;;;12.50;89.00;;;;;;5029612;28;20034;-75
2023/08/11 02:53:00;;;;;;;1999.90;999.90;;;12.60;89.00;;;;;;5035032;28;20053;-75
2023/08/11 02:55:26;;;;;;;1999.90;999.90;;;12.40;89.20;;;;;;5039232;28;20124;-76
2023/08/11 02:57:51;;;;;;;1999.90;999.90;;;12.50;89.00;;;;;;5039937;28;20116;-75
2023/08/11 03:00:18;;;;;;;1999.90;999.90;;;12.50;88.00;;;;;;5038399;28;20140;-74
2023/08/11 03:02:47;;;;;;;1999.90;999.90;;;12.50;88.40;;;;;;5037290;28;20034;-73
2023/08/11 03:05:14;;;;;;;1999.90;999.90;;;12.40;88.50;;;;;;5039524;28;20084;-75
2023/08/11 03:07:41;;;;;;;1999.90;999.90;;;12.40;88.40;;;;;;5034105;28;20108;-75
2023/08/11 03:10:09;;;;;;;1999.90;999.90;;;12.40;88.90;;;;;;5035710;28;20537;-75
2023/08/11 03:12:36;;;;;;;1999.90;999.90;;;12.40;89.50;;;;;;5029965;28;20064;-75
2023/08/11 03:15:05;;;;;;;1999.90;999.90;;;12.50;89.20;;;;;;5029616;28;20390;-74
2023/08/11 03:17:32;;;;;;;1999.90;999.90;;;12.40;89.00;;;;;;5034449;28;20044;-75
2023/08/11 03:19:58;;;;;;;1999.90;999.90;;;12.40;88.90;;;;;;5037157;28;20037;-75
2023/08/11 03:22:24;;;;;;;1999.90;999.90;;;12.40;88.40;;;;;;5030537;28;20407;-75
2023/08/11 03:24:50;;;;;;;1999.90;999.90;;;12.40;88.10;;;;;;5015628;28;20145;-74
2023/08/11 03:27:16;;;;;;;1999.90;999.90;;;12.30;88.70;;;;;;5029417;28;20813;-75
2023/08/11 03:29:41;;;;;;;1999.90;999.90;;;12.30;88.40;;;;;;5028070;28;20060;-75
2023/08/11 03:32:07;;;;;;;1999.90;999.90;;;12.30;89.10;;;;;;5029740;28;20570;-76
2023/08/11 03:34:33;;;;;;;1999.90;999.90;;;12.30;90.00;;;;;;5032575;28;20117;-76
2023/08/11 03:36:59;;;;;;;1999.90;999.90;;;12.30;90.30;;;;;;5040583;28;21181;-75
2023/08/11 03:39:24;;;;;;;1999.90;999.90;;;12.20;90.40;;;;;;5035882;28;20448;-76
2023/08/11 03:41:52;;;;;;;1999.90;999.90;;;12.20;90.50;;;;;;5030557;28;20033;-75
2023/08/11 03:44:17;;;;;;;1999.90;999.90;;;12.10;90.30;;;;;;5038983;28;20471;-75
2023/08/11 03:46:43;;;;;;;1999.90;999.90;;;12.10;90.00;;;;;;5032648;28;20041;-74
2023/08/11 03:49:09;;;;;;;1999.90;999.90;;;12.00;90.00;;;;;;5033306;28;20037;-74
2023/08/11 03:51:35;;;;;;;1999.90;999.90;;;12.00;89.90;;;;;;5033829;28;20053;-73
2023/08/11 03:54:02;;;;;;;1999.90;999.90;;;11.90;89.60;;;;;;5035022;28;20056;-75
2023/08/11 03:56:29;;;;;;;1999.90;999.90;;;11.90;89.70;;;;;;5034676;28;20091;-74
2023/08/11 03:58:54;;;;;;;1999.90;999.90;;;11.90;89.40;;;;;;5034727;28;20041;-75
2023/08/11 04:01:20;;;;;;;1999.90;999.90;;;11.70;89.80;;;;;;5032972;28;20035;-73
2023/08/11 04:03:46;;;;;;;1999.90;999.90;;;11.90;90.20;;;;;;5033394;28;20037;-75
2023/08/11 04:06:11;;;;;;;1999.90;999.90;;;11.90;90.00;;;;;;5031950;28;20021;-73
2023/08/11 04:08:37;;;;;;;1999.90;999.90;;;12.00;89.70;;;;;;5031919;28;20400;-74
2023/08/11 04:11:03;;;;;;;1999.90;999.90;;;12.00;89.80;;;;;;5031467;28;20046;-75
2023/08/11 04:13:29;;;;;;;1999.90;999.90;;;11.90;90.00;;;;;;5028966;28;20041;-73
2023/08/11 04:15:54;;;;;;;1999.90;999.90;;;12.00;90.20;;;;;;5028558;28;20041;-74
2023/08/11 04:18:20;;;;;;;1999.90;999.90;;;12.00;90.60;;;;;;5029764;28;20040;-75
2023/08/11 04:20:48;;;;;;;1999.90;999.90;;;12.00;90.60;;;;;;5028446;28;20036;-74
2023/08/11 04:23:14;;;;;;;1999.90;999.90;;;12.10;90.60;;;;;;5029006;28;20034;-74
2023/08/11 04:25:40;;;;;;;1999.90;999.90;;;12.10;90.40;;;;;;5033045;28;20028;-74
2023/08/11 04:28:06;;;;;;;1999.90;999.90;;;12.10;90.60;;;;;;5029664;28;20029;-74
2023/08/11 04:30:32;;;;;;;1999.90;999.90;;;12.10;90.40;;;;;;5029693;28;20100;-75
2023/08/11 04:32:58;;;;;;;1999.90;999.90;;;12.00;90.40;;;;;;5034408;28;20037;-76
2023/08/11 04:35:25;;;;;;;1999.90;999.90;;;12.10;90.30;;;;;;5035853;28;20489;-74
2023/08/11 04:37:50;;;;;;;1999.90;999.90;;;12.20;90.20;;;;;;5037253;28;20044;-75
2023/08/11 04:40:17;;;;;;;1999.90;999.90;;;12.10;90.10;;;;;;5029386;28;20051;-74
2023/08/11 04:42:44;;;;;;;1999.90;999.90;;;12.10;90.20;;;;;;5031693;28;20069;-74
2023/08/11 04:45:10;;;;;;;1999.90;999.90;;;12.10;90.50;;;;;;5036125;28;20547;-74
2023/08/11 04:47:36;;;;;;;1999.90;999.90;;;12.20;90.40;;;;;;5038655;28;20045;-74
2023/08/11 04:50:02;;;;;;;1999.90;999.90;;;12.40;90.40;;;;;;5039850;28;20037;-74
2023/08/11 04:52:28;;;;;;;1999.90;999.90;;;12.40;90.20;;;;;;5032942;28;20030;-74
2023/08/11 04:54:53;;;;;;;1999.90;999.90;;;12.50;90.20;;;;;;5031276;28;20067;-75
2023/08/11 04:57:20;;;;;;;1999.90;999.90;;;12.60;90.10;;;;;;5038744;28;20071;-74
2023/08/11 04:59:46;;;;;;;1999.90;999.90;;;12.70;90.50;;;;;;5041679;28;20041;-75
2023/08/11 05:02:12;;;;;;;1999.90;999.90;;;12.80;90.60;;;;;;5034799;28;20037;-74
2023/08/11 05:04:38;;;;;;;1999.90;999.90;;;12.90;90.40;;;;;;5038196;28;20635;-79
2023/08/11 05:07:06;;;;;;;1999.90;999.90;;;13.00;90.40;;;;;;5021587;28;20086;-76
2023/08/11 05:09:32;;;;;;;1999.90;999.90;;;13.10;90.20;;;;;;5041741;28;20029;-75
2023/08/11 05:11:57;;;;;;;1999.90;999.90;;;13.20;90.00;;;;;;5037681;28;20040;-77
2023/08/11 05:14:23;;;;;;;1999.90;999.90;;;13.30;90.00;;;;;;5039373;28;20124;-76
2023/08/11 05:16:49;;;;;;;1999.90;999.90;;;13.30;90.30;;;;;;5038750;28;20244;-75
2023/08/11 05:19:15;;;;;;;1999.90;999.90;;;13.30;90.20;;;;;;5043058;28;20048;-78
2023/08/11 05:21:40;;;;;;;1999.90;999.90;;;13.50;90.20;;;;;;5037498;28;20040;-76
2023/08/11 05:24:07;;;;;;;1999.90;999.90;;;13.60;89.80;;;;;;5033650;28;20040;-83
2023/08/11 05:26:33;;;;;;;1999.90;999.90;;;13.80;89.70;;;;;;5028423;28;20053;-78
2023/08/11 05:28:59;;;;;;;1999.90;999.90;;;13.90;89.50;;;;;;5029966;28;20498;-80
2023/08/11 05:31:24;;;;;;;1999.90;999.90;;;14.00;89.80;;;;;;5030981;28;20478;-78
2023/08/11 05:33:52;;;;;;;1999.90;999.90;;;14.10;89.00;;;;;;5039355;28;20496;-77
2023/08/11 05:36:18;;;;;;;1999.90;999.90;;;14.20;88.10;;;;;;5039492;28;20045;-79
2023/08/11 05:38:43;;;;;;;1999.90;999.90;;;14.40;88.10;;;;;;5021081;28;20058;-78
2023/08/11 05:41:09;;;;;;;1999.90;999.90;;;14.40;88.00;;;;;;5035857;28;20494;-74
2023/08/11 05:43:36;;;;;;;1999.90;999.90;;;14.50;87.50;;;;;;5031475;28;20026;-80
2023/08/11 05:46:06;;;;;;;1999.90;999.90;;;14.40;87.10;;;;;;5035292;28;20021;-81
2023/08/11 05:48:38;;;;;;;1999.90;999.90;;;14.50;86.70;;;;;;5030597;28;20037;-78
2023/08/11 05:51:04;;;;;;;1999.90;999.90;;;14.60;87.00;;;;;;5034735;28;20041;-80
2023/08/11 05:53:30;;;;;;;1999.90;999.90;;;14.70;86.50;;;;;;5035265;28;20496;-78
2023/08/11 05:55:56;;;;;;;1999.90;999.90;;;14.80;86.00;;;;;;5038364;28;20037;-81
2023/08/11 05:58:22;;;;;;;1999.90;999.90;;;15.00;85.00;;;;;;5034366;28;20036;-76
2023/08/11 06:00:48;;;;;;;1999.90;999.90;;;15.00;84.80;;;;;;5031023;28;20025;-78
2023/08/11 06:03:14;;;;;;;1999.90;999.90;;;15.10;84.40;;;;;;5034961;28;20083;-75
2023/08/11 06:05:40;;;;;;;1999.90;999.90;;;15.20;84.40;;;;;;5035184;28;20037;-76
2023/08/11 06:08:06;;;;;;;1999.90;999.90;;;15.40;84.20;;;;;;5031509;28;20091;-78
2023/08/11 06:10:32;;;;;;;1999.90;999.90;;;15.50;83.80;;;;;;5032503;28;20038;-76
2023/08/11 06:12:58;;;;;;;1999.90;999.90;;;15.70;83.90;;;;;;5038153;28;20091;-76
2023/08/11 06:15:24;;;;;;;1999.90;999.90;;;15.70;83.10;;;;;;5036072;28;20496;-79
2023/08/11 06:17:50;;;;;;;1999.90;999.90;;;15.70;83.30;;;;;;5032751;28;20063;-77
2023/08/11 06:20:19;;;;;;;1999.90;999.90;;;15.90;83.10;;;;;;5034531;28;20029;-78
2023/08/11 06:22:48;;;;;;;1999.90;999.90;;;16.10;82.70;;;;;;5033665;28;20506;-77
2023/08/11 06:25:17;;;;;;;1999.90;999.90;;;16.10;82.20;;;;;;5038136;28;20030;-78
2023/08/11 06:27:44;;;;;;;1999.90;999.90;;;16.20;82.30;;;;;;5037699;28;20030;-75
2023/08/11 06:30:10;;;;;;;1999.90;999.90;;;16.30;82.70;;;;;;5036281;28;20049;-78
2023/08/11 06:32:37;;;;;;;1999.90;999.90;;;16.40;81.40;;;;;;5038662;28;20033;-77
2023/08/11 06:35:04;;;;;;;1999.90;999.90;;;16.50;81.30;;;;;;5015410;28;20037;-77
2023/08/11 06:37:29;;;;;;;1999.90;999.90;;;16.70;81.40;;;;;;5015988;28;20549;-77
2023/08/11 06:39:58;;;;;;;1999.90;999.90;;;16.80;80.30;;;;;;5034906;28;20033;-77
2023/08/11 06:42:24;;;;;;;1999.90;999.90;;;17.00;79.60;;;;;;5032060;28;20500;-77
2023/08/11 06:44:50;;;;;;;1999.90;999.90;;;17.10;79.70;;;;;;5029824;28;20043;-77
2023/08/11 06:47:16;;;;;;;1999.90;999.90;;;17.20;80.10;;;;;;5031543;28;20174;-77
2023/08/11 06:49:41;;;;;;;1999.90;999.90;;;17.30;79.70;;;;;;5031762;28;20036;-76
2023/08/11 06:52:07;;;;;;;1999.90;999.90;;;17.50;79.10;;;;;;5034306;28;20447;-77
2023/08/11 06:54:34;;;;;;;1999.90;999.90;;;17.70;78.70;;;;;;5032731;28;20040;-77
2023/08/11 06:57:02;;;;;;;1999.90;999.90;;;17.70;76.60;;;;;;5035200;28;20044;-76
2023/08/11 06:59:28;;;;;;;1999.90;999.90;;;17.80;77.30;;;;;;5034622;28;20033;-76
2023/08/11 07:01:53;;;;;;;1999.90;999.90;;;18.00;77.10;;;;;;5036577;28;20031;-77
2023/08/11 07:04:20;;;;;;;1999.90;999.90;;;18.10;75.60;;;;;;5031348;28;20060;-76
2023/08/11 07:06:46;;;;;;;1999.90;999.90;;;18.20;76.00;;;;;;5032009;28;20036;-77
2023/08/11 07:09:12;;;;;;;1999.90;999.90;;;18.30;76.00;;;;;;5034230;28;20021;-77
2023/08/11 07:11:38;;;;;;;1999.90;999.90;;;18.40;74.10;;;;;;5032894;28;20041;-77
2023/08/11 07:14:04;;;;;;;1999.90;999.90;;;18.50;73.80;;;;;;5033354;28;20021;-76
2023/08/11 07:16:30;;;;;;;1999.90;999.90;;;18.60;73.50;;;;;;5034116;28;20056;-77
2023/08/11 07:18:55;;;;;;;1999.90;999.90;;;18.80;73.00;;;;;;5029822;28;20030;-76
2023/08/11 07:21:21;;;;;;;1999.90;999.90;;;19.00;72.20;;;;;;5030327;28;20033;-74
2023/08/11 07:23:47;;;;;;;1999.90;999.90;;;19.20;71.90;;;;;;5030238;28;20029;-75
2023/08/11 07:26:12;;;;;;;1999.90;999.90;;;19.30;71.40;;;;;;5030908;28;20100;-76
2023/08/11 07:28:38;;;;;;;1999.90;999.90;;;19.40;72.20;;;;;;5029157;28;20088;-75
2023/08/11 07:31:04;;;;;;;1999.90;999.90;;;19.60;71.80;;;;;;5030991;28;20395;-75
2023/08/11 07:33:30;;;;;;;1999.90;999.90;;;19.70;71.10;;;;;;5036368;28;20042;-75
2023/08/11 07:35:55;;;;;;;1999.90;999.90;;;19.90;71.80;;;;;;5033210;28;20037;-76
2023/08/11 07:38:21;;;;;;;1999.90;999.90;;;20.10;70.50;;;;;;5032694;28;20091;-75
2023/08/11 07:40:47;;;;;;;1999.90;999.90;;;20.20;70.50;;;;;;5033462;28;20399;-75
2023/08/11 07:43:14;;;;;;;1999.90;999.90;;;20.30;69.70;;;;;;5032714;28;20028;-76
2023/08/11 07:45:39;;;;;;;1999.90;999.90;;;20.40;69.00;;;;;;5029999;28;20033;-75
2023/08/11 07:48:06;;;;;;;1999.90;999.90;;;20.40;67.10;;;;;;5031025;28;20025;-76
2023/08/11 07:50:36;;;;;;;1999.90;999.90;;;20.40;67.80;;;;;;5033024;28;20537;-75
2023/08/11 07:53:02;;;;;;;1999.90;999.90;;;20.50;67.50;;;;;;5034192;28;20483;-76
2023/08/11 07:55:27;;;;;;;1999.90;999.90;;;20.60;69.00;;;;;;5029074;28;20112;-73
2023/08/11 07:57:53;;;;;;;1999.90;999.90;;;20.80;67.70;;;;;;5028849;28;20560;-75
2023/08/11 08:00:24;;;;;;;1999.90;999.90;;;21.00;67.30;;;;;;5030512;28;20396;-76
2023/08/11 08:02:51;;;;;;;1999.90;999.90;;;21.10;66.50;;;;;;5032572;28;20033;-76
2023/08/11 08:05:17;;;;;;;1999.90;999.90;;;21.20;67.10;;;;;;5030118;28;20033;-73
2023/08/11 08:07:43;;;;;;;1999.90;999.90;;;21.00;69.00;;;;;;5031932;28;20030;-73
2023/08/11 08:10:09;;;;;;;1999.90;999.90;;;21.30;66.60;;;;;;5028875;28;20025;-73
2023/08/11 08:12:38;;;;;;;1999.90;999.90;;;21.40;64.50;;;;;;5028304;28;20038;-74
2023/08/11 08:15:06;;;;;;;1999.90;999.90;;;21.60;66.30;;;;;;5031062;28;20037;-74
2023/08/11 08:17:32;;;;;;;1999.90;999.90;;;21.90;66.80;;;;;;5032400;28;20049;-74
2023/08/11 08:19:57;;;;;;;1999.90;999.90;;;21.90;66.60;;;;;;5034574;28;20029;-74
2023/08/11 08:22:24;;;;;;;1999.90;999.90;;;22.10;64.80;;;;;;5043066;28;20071;-73
2023/08/11 08:24:50;;;;;;;1999.90;999.90;;;22.30;62.10;;;;;;5018063;28;20029;-74
2023/08/11 08:27:18;;;;;;;1999.90;999.90;;;22.50;62.60;;;;;;5035583;28;20329;-74
2023/08/11 08:29:44;;;;;;;1999.90;999.90;;;22.50;61.70;;;;;;5036723;28;20037;-74
2023/08/11 08:32:09;;;;;;;1999.90;999.90;;;22.50;61.80;;;;;;5038079;28;20052;-73
2023/08/11 08:34:35;;;;;;;1999.90;999.90;;;22.60;60.40;;;;;;5037437;28;20037;-74
2023/08/11 08:37:01;;;;;;;1999.90;999.90;;;22.60;60.70;;;;;;5036640;28;20106;-73
2023/08/11 08:39:27;;;;;;;1999.90;999.90;;;22.90;60.50;;;;;;5032083;28;20128;-74
2023/08/11 08:41:53;;;;;;;1999.90;999.90;;;23.10;59.60;;;;;;5035777;28;20025;-73
2023/08/11 08:44:20;;;;;;;1999.90;999.90;;;23.20;57.20;;;;;;5034745;28;20677;-73
2023/08/11 08:46:50;;;;;;;1999.90;999.90;;;23.50;57.20;;;;;;5035061;28;20029;-73
2023/08/11 08:49:22;;;;;;;1999.90;999.90;;;23.50;59.20;;;;;;5035680;28;20487;-73
2023/08/11 08:51:48;;;;;;;1999.90;999.90;;;23.70;56.40;;;;;;5038106;28;20029;-73
2023/08/11 08:54:14;;;;;;;1999.90;999.90;;;23.80;55.40;;;;;;5036131;28;20025;-73
2023/08/11 08:56:40;;;;;;;1999.90;999.90;;;24.30;58.40;;;;;;5040357;28;20527;-74
2023/08/11 08:59:09;;;;;;;1999.90;999.90;;;24.40;56.00;;;;;;5036034;28;20033;-74
2023/08/11 09:01:36;;;;;;;1999.90;999.90;;;24.40;55.00;;;;;;5034517;28;20079;-74
2023/08/11 09:04:03;;;;;;;1999.90;999.90;;;24.40;52.50;;;;;;5032374;28;20037;-74
2023/08/11 09:06:29;;;;;;;1999.90;999.90;;;24.60;52.90;;;;;;5033641;28;20411;-74
2023/08/11 09:08:56;;;;;;;1999.90;999.90;;;24.70;48.20;;;;;;5036348;28;20071;-74
2023/08/11 09:11:23;;;;;;;1999.90;999.90;;;24.70;50.90;;;;;;5035966;28;20120;-74
2023/08/11 09:13:49;;;;;;;1999.90;999.90;;;24.80;52.10;;;;;;5036757;28;20037;-74
2023/08/11 09:16:15;;;;;;;1999.90;999.90;;;25.30;52.40;;;;;;5031702;28;20044;-74
2023/08/11 09:18:43;;;;;;;1999.90;999.90;;;25.20;49.50;;;;;;5030867;28;20049;-74
2023/08/11 09:21:08;;;;;;;1999.90;999.90;;;25.60;48.30;;;;;;5035678;28;20475;-74
2023/08/11 09:23:36;;;;;;;1999.90;999.90;;;25.70;50.40;;;;;;5035709;28;20090;-74
2023/08/11 09:26:02;;;;;;;1999.90;999.90;;;26.10;49.10;;;;;;5034342;28;20029;-74
2023/08/11 09:28:27;;;;;;;1999.90;999.90;;;26.00;50.80;;;;;;5032665;28;20025;-74
2023/08/11 09:30:54;;;;;;;1999.90;999.90;;;26.30;52.00;;;;;;5037347;28;20028;-75
2023/08/11 09:33:22;;;;;;;1999.90;999.90;;;26.00;50.10;;;;;;5041151;28;20507;-74
2023/08/11 09:35:49;;;;;;;1999.90;999.90;;;26.40;49.30;;;;;;5039510;28;20033;-74
2023/08/11 09:38:15;;;;;;;1999.90;999.90;;;26.20;46.60;;;;;;5036490;28;20060;-75
2023/08/11 09:40:41;;;;;;;1999.90;999.90;;;26.40;48.50;;;;;;5035367;28;20113;-74
2023/08/11 09:43:07;;;;;;;1999.90;999.90;;;26.80;49.00;;;;;;5035908;28;20457;-75
2023/08/11 09:45:33;;;;;;;1999.90;999.90;;;26.60;47.50;;;;;;5030830;28;20021;-74
2023/08/11 09:47:59;;;;;;;1999.90;999.90;;;26.90;48.50;;;;;;5040672;28;20033;-74
2023/08/11 09:50:30;;;;;;;1999.90;999.90;;;27.20;46.90;;;;;;5034386;28;20030;-75
2023/08/11 09:52:59;;;;;;;1999.90;999.90;;;27.00;44.70;;;;;;5037082;28;20547;-75
2023/08/11 09:55:28;;;;;;;1999.90;999.90;;;26.90;46.20;;;;;;5015647;28;20041;-74
2023/08/11 09:57:56;;;;;;;1999.90;999.90;;;27.20;51.10;;;;;;5035615;28;20033;-75
2023/08/11 10:00:23;;;;;;;1999.90;999.90;;;27.30;46.80;;;;;;5033806;28;20025;-75
2023/08/11 10:03:15;;;;;;;1999.90;999.90;;;27.50;46.90;;;;;;5035934;28;20025;-75
2023/08/11 10:05:42;;;;;;;1999.90;999.90;;;27.70;42.80;;;;;;5032062;28;20681;-75
2023/08/11 10:08:14;;;;;;;1999.90;999.90;;;27.70;41.60;;;;;;5033719;28;20034;-75
2023/08/11 10:10:40;;;;;;;1999.90;999.90;;;27.60;40.70;;;;;;5034068;28;20065;-74
2023/08/11 10:13:08;;;;;;;1999.90;999.90;;;27.30;42.00;;;;;;5040186;28;20029;-74
2023/08/11 10:15:35;;;;;;;1999.90;999.90;;;27.30;43.40;;;;;;5034902;28;20036;-75
2023/08/11 10:18:06;;;;;;;1999.90;999.90;;;27.50;45.20;;;;;;5038510;28;20498;-74
2023/08/11 10:20:32;;;;;;;1999.90;999.90;;;28.10;44.00;;;;;;5035565;28;20036;-75
2023/08/11 10:23:01;;;;;;;1999.90;999.90;;;28.00;41.60;;;;;;5036626;28;20022;-74
2023/08/11 10:25:27;;;;;;;1999.90;999.90;;;27.70;42.00;;;;;;5036194;28;20033;-75
2023/08/11 10:27:53;;;;;;;1999.90;999.90;;;28.00;43.50;;;;;;5033506;28;20159;-74
2023/08/11 10:30:19;;;;;;;1999.90;999.90;;;28.40;41.50;;;;;;5032231;28;20037;-75
2023/08/11 10:32:45;;;;;;;1999.90;999.90;;;28.10;43.50;;;;;;5032817;28;20487;-75
2023/08/11 10:35:25;;;;;;;1999.90;999.90;;;28.50;43.90;;;;;;5031588;28;20045;-75
2023/08/11 10:37:59;;;;;;;1999.90;999.90;;;28.40;42.40;;;;;;5027811;28;20831;-75
2023/08/11 10:40:37;;;;;;;1999.90;999.90;;;28.60;42.90;;;;;;5033813;28;20901;-75
2023/08/11 10:43:04;;;;;;;1999.90;999.90;;;28.80;39.40;;;;;;5025814;28;20036;-75
2023/08/11 10:45:32;;;;;;;1999.90;999.90;;;29.20;38.80;;;;;;5027329;28;20457;-74
2023/08/11 10:47:58;;;;;;;1999.90;999.90;;;29.40;37.50;;;;;;5031384;28;20033;-75
2023/08/11 10:50:26;;;;;;;1999.90;999.90;;;29.30;39.80;;;;;;5029997;28;20029;-75
2023/08/11 10:53:21;;;;;;;1999.90;999.90;;;28.90;37.60;;;;;;5029293;28;20046;-75
2023/08/11 10:56:00;;;;;;;1999.90;999.90;;;29.10;37.60;;;;;;5034530;28;20049;-74
2023/08/11 10:58:29;;;;;;;1999.90;999.90;;;29.70;39.60;;;;;;5034379;28;20491;-74
2023/08/11 11:00:54;;;;;;;1999.90;999.90;;;30.20;36.50;;;;;;5030581;28;20047;-75
2023/08/11 11:03:21;;;;;;;1999.90;999.90;;;30.00;34.60;;;;;;5032385;28;20525;-75
2023/08/11 11:05:47;;;;;;;1999.90;999.90;;;30.20;36.00;;;;;;5034456;28;20037;-74
2023/08/11 11:08:12;;;;;;;1999.90;999.90;;;30.80;35.90;;;;;;5035485;28;20040;-74
2023/08/11 11:10:38;;;;;;;1999.90;999.90;;;31.30;36.50;;;;;;5031733;28;20475;-75
2023/08/11 11:13:04;;;;;;;1999.90;999.90;;;31.20;35.10;;;;;;5031237;28;20037;-75
2023/08/11 11:15:31;;;;;;;1999.90;999.90;;;31.90;31.80;;;;;;5030136;28;20033;-74
2023/08/11 11:17:59;;;;;;;1999.90;999.90;;;31.70;34.80;;;;;;5032560;28;20040;-75
2023/08/11 11:20:26;;;;;;;1999.90;999.90;;;32.20;32.40;;;;;;5030447;28;20044;-75
2023/08/11 11:22:51;;;;;;;1999.90;999.90;;;32.60;35.20;;;;;;5030371;28;20030;-75
2023/08/11 11:25:18;;;;;;;1999.90;999.90;;;32.30;30.80;;;;;;5030139;28;20095;-75
2023/08/11 11:27:44;;;;;;;1999.90;999.90;;;32.30;32.10;;;;;;5030519;28;20032;-75
2023/08/11 11:30:11;;;;;;;1999.90;999.90;;;31.90;35.40;;;;;;5035356;28;20037;-75
2023/08/11 11:32:38;;;;;;;1999.90;999.90;;;32.60;31.20;;;;;;5034859;28;20095;-75
2023/08/11 11:35:08;;;;;;;1999.90;999.90;;;32.80;32.50;;;;;;5028839;28;20037;-75
2023/08/11 11:37:34;;;;;;;1999.90;999.90;;;33.00;33.60;;;;;;5033239;28;20586;-75
2023/08/11 11:40:07;;;;;;;1999.90;999.90;;;33.10;29.90;;;;;;5035371;28;20037;-74
2023/08/11 11:42:36;;;;;;;1999.90;999.90;;;33.30;29.20;;;;;;5034881;28;20032;-78
2023/08/11 11:45:04;;;;;;;1999.90;999.90;;;33.30;27.00;;;;;;5033600;28;20025;-78
2023/08/11 11:47:30;;;;;;;1999.90;999.90;;;33.50;27.20;;;;;;5014624;28;20034;-79
2023/08/11 11:50:04;;;;;;;1999.90;999.90;;;33.60;27.70;;;;;;5033109;28;20044;-79
2023/08/11 11:52:30;;;;;;;1999.90;999.90;;;33.40;29.10;;;;;;5034379;28;20052;-77
2023/08/11 11:54:55;;;;;;;1999.90;999.90;;;32.60;28.00;;;;;;5032932;28;20039;-75
2023/08/11 11:57:22;;;;;;;1999.90;999.90;;;33.60;30.30;;;;;;5033767;28;20072;-81